sensor_id;sensor_type;location;lat;lon;timestamp;P1;durP1;ratioP1;P2;durP2;ratioP2
19221;SDS011;9745;50.828;4.378;2023-02-15T00:00:33;57.07;;;28.67;;
19221;SDS011;9745;50.828;4.378;2023-02-15T00:02:59;56.63;;;28.53;;
19221;SDS011;9745;50.828;4.378;2023-02-15T00:05:25;60.03;;;28.17;;
19221;SDS011;9745;50.828;4.378;2023-02-15T00:10:29;58.13;;;28.60;;
19221;SDS011;9745;50.828;4.378;2023-02-15T00:12:55;54.10;;;27.37;;
19221;SDS011;9745;50.828;4.378;2023-02-15T00:15:21;58.17;;;27.83;;
19221;SDS011;9745;50.828;4.378;2023-02-15T00:17:47;51.83;;;26.33;;
19221;SDS011;9745;50.828;4.378;2023-02-15T00:20:13;56.23;;;28.03;;
19221;SDS011;9745;50.828;4.378;2023-02-15T00:22:39;52.53;;;27.57;;
19221;SDS011;9745;50.828;4.378;2023-02-15T00:25:05;55.20;;;27.70;;
19221;SDS011;9745;50.828;4.378;2023-02-15T00:27:32;51.77;;;26.30;;
19221;SDS011;9745;50.828;4.378;2023-02-15T00:29:59;60.33;;;27.07;;
19221;SDS011;9745;50.828;4.378;2023-02-15T00:32:25;52.27;;;27.27;;
19221;SDS011;9745;50.828;4.378;2023-02-15T00:34:51;53.67;;;27.47;;
19221;SDS011;9745;50.828;4.378;2023-02-15T00:37:17;52.53;;;26.13;;
19221;SDS011;9745;50.828;4.378;2023-02-15T00:39:43;52.33;;;26.63;;
19221;SDS011;9745;50.828;4.378;2023-02-15T00:42:09;55.50;;;29.00;;
19221;SDS011;9745;50.828;4.378;2023-02-15T00:44:35;53.70;;;26.07;;
19221;SDS011;9745;50.828;4.378;2023-02-15T00:47:01;50.73;;;27.60;;
19221;SDS011;9745;50.828;4.378;2023-02-15T00:49:27;50.47;;;26.83;;
19221;SDS011;9745;50.828;4.378;2023-02-15T00:51:53;53.43;;;26.97;;
19221;SDS011;9745;50.828;4.378;2023-02-15T00:54:19;57.07;;;27.33;;
19221;SDS011;9745;50.828;4.378;2023-02-15T00:56:45;56.93;;;27.67;;
19221;SDS011;9745;50.828;4.378;2023-02-15T00:59:11;60.50;;;27.47;;
19221;SDS011;9745;50.828;4.378;2023-02-15T01:01:37;57.97;;;27.33;;
19221;SDS011;9745;50.828;4.378;2023-02-15T01:04:03;54.80;;;27.43;;
19221;SDS011;9745;50.828;4.378;2023-02-15T01:06:29;51.47;;;26.13;;
19221;SDS011;9745;50.828;4.378;2023-02-15T01:08:55;63.93;;;26.77;;
19221;SDS011;9745;50.828;4.378;2023-02-15T01:11:21;49.40;;;24.50;;
19221;SDS011;9745;50.828;4.378;2023-02-15T01:13:52;53.33;;;25.53;;
19221;SDS011;9745;50.828;4.378;2023-02-15T01:16:18;50.63;;;26.40;;
19221;SDS011;9745;50.828;4.378;2023-02-15T01:18:44;52.47;;;25.87;;
19221;SDS011;9745;50.828;4.378;2023-02-15T01:21:11;55.43;;;27.33;;
19221;SDS011;9745;50.828;4.378;2023-02-15T01:23:38;51.40;;;24.80;;
19221;SDS011;9745;50.828;4.378;2023-02-15T01:26:04;53.77;;;24.80;;
19221;SDS011;9745;50.828;4.378;2023-02-15T01:28:31;53.63;;;24.77;;
19221;SDS011;9745;50.828;4.378;2023-02-15T01:30:57;54.10;;;25.43;;
19221;SDS011;9745;50.828;4.378;2023-02-15T01:33:24;51.23;;;24.23;;
19221;SDS011;9745;50.828;4.378;2023-02-15T01:35:55;48.50;;;24.30;;
19221;SDS011;9745;50.828;4.378;2023-02-15T01:38:21;48.70;;;23.37;;
19221;SDS011;9745;50.828;4.378;2023-02-15T01:40:50;50.10;;;24.33;;
19221;SDS011;9745;50.828;4.378;2023-02-15T01:43:16;52.73;;;23.00;;
19221;SDS011;9745;50.828;4.378;2023-02-15T01:45:42;50.73;;;25.10;;
19221;SDS011;9745;50.828;4.378;2023-02-15T01:48:19;48.87;;;25.50;;
19221;SDS011;9745;50.828;4.378;2023-02-15T01:50:47;51.57;;;24.30;;
19221;SDS011;9745;50.828;4.378;2023-02-15T01:53:23;51.80;;;24.93;;
19221;SDS011;9745;50.828;4.378;2023-02-15T01:55:59;50.77;;;25.53;;
19221;SDS011;9745;50.828;4.378;2023-02-15T01:58:27;48.73;;;24.20;;
19221;SDS011;9745;50.828;4.378;2023-02-15T02:00:54;54.57;;;24.77;;
19221;SDS011;9745;50.828;4.378;2023-02-15T02:03:24;46.43;;;23.20;;
19221;SDS011;9745;50.828;4.378;2023-02-15T02:05:53;51.33;;;24.47;;
19221;SDS011;9745;50.828;4.378;2023-02-15T02:08:20;52.00;;;24.90;;
19221;SDS011;9745;50.828;4.378;2023-02-15T02:10:49;53.20;;;25.63;;
19221;SDS011;9745;50.828;4.378;2023-02-15T02:13:15;52.83;;;24.47;;
19221;SDS011;9745;50.828;4.378;2023-02-15T02:15:47;47.23;;;23.93;;
19221;SDS011;9745;50.828;4.378;2023-02-15T02:18:38;54.10;;;25.93;;
19221;SDS011;9745;50.828;4.378;2023-02-15T02:28:53;50.80;;;25.57;;
19221;SDS011;9745;50.828;4.378;2023-02-15T02:31:25;53.97;;;26.20;;
19221;SDS011;9745;50.828;4.378;2023-02-15T02:36:24;47.57;;;24.57;;
19221;SDS011;9745;50.828;4.378;2023-02-15T02:41:44;52.30;;;26.33;;
19221;SDS011;9745;50.828;4.378;2023-02-15T02:44:16;54.00;;;25.40;;
19221;SDS011;9745;50.828;4.378;2023-02-15T02:49:39;46.57;;;24.23;;
19221;SDS011;9745;50.828;4.378;2023-02-15T02:54:49;50.67;;;26.23;;
19221;SDS011;9745;50.828;4.378;2023-02-15T02:57:15;49.73;;;25.23;;
19221;SDS011;9745;50.828;4.378;2023-02-15T02:59:43;57.50;;;28.20;;
19221;SDS011;9745;50.828;4.378;2023-02-15T03:02:11;50.73;;;27.80;;
19221;SDS011;9745;50.828;4.378;2023-02-15T03:04:40;49.70;;;27.83;;
19221;SDS011;9745;50.828;4.378;2023-02-15T03:07:11;46.37;;;26.37;;
19221;SDS011;9745;50.828;4.378;2023-02-15T03:09:38;50.23;;;26.77;;
19221;SDS011;9745;50.828;4.378;2023-02-15T03:12:09;49.43;;;24.77;;
19221;SDS011;9745;50.828;4.378;2023-02-15T03:14:35;50.33;;;25.47;;
19221;SDS011;9745;50.828;4.378;2023-02-15T03:17:02;51.27;;;27.07;;
19221;SDS011;9745;50.828;4.378;2023-02-15T03:19:30;47.50;;;24.83;;
19221;SDS011;9745;50.828;4.378;2023-02-15T03:21:59;47.97;;;26.67;;
19221;SDS011;9745;50.828;4.378;2023-02-15T03:27:14;49.70;;;26.53;;
19221;SDS011;9745;50.828;4.378;2023-02-15T03:29:42;50.13;;;26.57;;
19221;SDS011;9745;50.828;4.378;2023-02-15T03:32:09;51.37;;;27.07;;
19221;SDS011;9745;50.828;4.378;2023-02-15T03:34:36;48.17;;;26.33;;
19221;SDS011;9745;50.828;4.378;2023-02-15T03:42:20;45.80;;;24.00;;
19221;SDS011;9745;50.828;4.378;2023-02-15T03:47:17;42.37;;;24.73;;
19221;SDS011;9745;50.828;4.378;2023-02-15T03:49:53;46.33;;;25.57;;
19221;SDS011;9745;50.828;4.378;2023-02-15T03:52:20;48.30;;;24.93;;
19221;SDS011;9745;50.828;4.378;2023-02-15T03:54:47;45.40;;;25.13;;
19221;SDS011;9745;50.828;4.378;2023-02-15T03:57:24;52.27;;;25.00;;
19221;SDS011;9745;50.828;4.378;2023-02-15T04:00:14;46.63;;;24.20;;
19221;SDS011;9745;50.828;4.378;2023-02-15T04:05:31;46.33;;;24.47;;
19221;SDS011;9745;50.828;4.378;2023-02-15T04:07:57;48.50;;;26.40;;
19221;SDS011;9745;50.828;4.378;2023-02-15T04:10:23;47.10;;;26.03;;
19221;SDS011;9745;50.828;4.378;2023-02-15T04:13:08;49.83;;;25.63;;
19221;SDS011;9745;50.828;4.378;2023-02-15T04:15:34;56.83;;;26.97;;
19221;SDS011;9745;50.828;4.378;2023-02-15T04:18:18;52.10;;;26.87;;
19221;SDS011;9745;50.828;4.378;2023-02-15T04:20:45;50.37;;;26.43;;
19221;SDS011;9745;50.828;4.378;2023-02-15T04:23:29;52.53;;;26.30;;
19221;SDS011;9745;50.828;4.378;2023-02-15T04:26:13;50.50;;;25.90;;
19221;SDS011;9745;50.828;4.378;2023-02-15T04:28:39;47.47;;;24.60;;
19221;SDS011;9745;50.828;4.378;2023-02-15T04:31:05;44.07;;;25.27;;
19221;SDS011;9745;50.828;4.378;2023-02-15T04:33:31;53.07;;;27.33;;
19221;SDS011;9745;50.828;4.378;2023-02-15T04:35:57;50.33;;;26.57;;
19221;SDS011;9745;50.828;4.378;2023-02-15T04:38:23;50.60;;;25.53;;
19221;SDS011;9745;50.828;4.378;2023-02-15T04:40:50;53.07;;;26.60;;
19221;SDS011;9745;50.828;4.378;2023-02-15T04:43:17;53.27;;;27.07;;
19221;SDS011;9745;50.828;4.378;2023-02-15T04:45:47;49.10;;;25.90;;
19221;SDS011;9745;50.828;4.378;2023-02-15T04:48:15;51.27;;;24.77;;
19221;SDS011;9745;50.828;4.378;2023-02-15T04:50:41;49.37;;;25.53;;
19221;SDS011;9745;50.828;4.378;2023-02-15T04:53:07;48.43;;;24.53;;
19221;SDS011;9745;50.828;4.378;2023-02-15T04:55:33;50.10;;;25.40;;
19221;SDS011;9745;50.828;4.378;2023-02-15T04:57:59;49.43;;;25.33;;
19221;SDS011;9745;50.828;4.378;2023-02-15T05:00:25;52.67;;;24.60;;
19221;SDS011;9745;50.828;4.378;2023-02-15T05:02:52;43.33;;;23.77;;
19221;SDS011;9745;50.828;4.378;2023-02-15T05:05:18;51.40;;;26.80;;
19221;SDS011;9745;50.828;4.378;2023-02-15T05:07:44;51.33;;;26.00;;
19221;SDS011;9745;50.828;4.378;2023-02-15T05:10:10;43.33;;;24.83;;
19221;SDS011;9745;50.828;4.378;2023-02-15T05:12:36;49.30;;;25.40;;
19221;SDS011;9745;50.828;4.378;2023-02-15T05:15:02;50.03;;;24.93;;
19221;SDS011;9745;50.828;4.378;2023-02-15T05:17:28;53.37;;;25.63;;
19221;SDS011;9745;50.828;4.378;2023-02-15T05:19:54;51.60;;;25.93;;
19221;SDS011;9745;50.828;4.378;2023-02-15T05:22:20;53.80;;;26.53;;
19221;SDS011;9745;50.828;4.378;2023-02-15T05:24:46;46.43;;;25.27;;
19221;SDS011;9745;50.828;4.378;2023-02-15T05:27:31;50.33;;;25.27;;
19221;SDS011;9745;50.828;4.378;2023-02-15T05:30:15;44.60;;;25.23;;
19221;SDS011;9745;50.828;4.378;2023-02-15T05:32:41;49.67;;;26.10;;
19221;SDS011;9745;50.828;4.378;2023-02-15T05:35:07;51.27;;;26.43;;
19221;SDS011;9745;50.828;4.378;2023-02-15T05:37:33;52.10;;;25.70;;
19221;SDS011;9745;50.828;4.378;2023-02-15T05:39:59;50.93;;;25.03;;
19221;SDS011;9745;50.828;4.378;2023-02-15T05:42:25;48.00;;;26.47;;
19221;SDS011;9745;50.828;4.378;2023-02-15T05:44:51;51.47;;;25.83;;
19221;SDS011;9745;50.828;4.378;2023-02-15T05:47:17;52.40;;;25.80;;
19221;SDS011;9745;50.828;4.378;2023-02-15T05:49:43;50.73;;;26.40;;
19221;SDS011;9745;50.828;4.378;2023-02-15T05:52:09;54.40;;;27.23;;
19221;SDS011;9745;50.828;4.378;2023-02-15T05:54:37;53.57;;;27.73;;
19221;SDS011;9745;50.828;4.378;2023-02-15T05:57:03;49.40;;;25.43;;
19221;SDS011;9745;50.828;4.378;2023-02-15T05:59:29;48.43;;;24.60;;
19221;SDS011;9745;50.828;4.378;2023-02-15T06:01:55;54.63;;;25.80;;
19221;SDS011;9745;50.828;4.378;2023-02-15T06:04:21;47.87;;;25.67;;
19221;SDS011;9745;50.828;4.378;2023-02-15T06:06:46;50.03;;;24.60;;
19221;SDS011;9745;50.828;4.378;2023-02-15T06:11:50;49.20;;;25.43;;
19221;SDS011;9745;50.828;4.378;2023-02-15T06:14:16;52.67;;;25.77;;
19221;SDS011;9745;50.828;4.378;2023-02-15T06:16:42;52.97;;;25.43;;
19221;SDS011;9745;50.828;4.378;2023-02-15T06:19:08;48.43;;;24.60;;
19221;SDS011;9745;50.828;4.378;2023-02-15T06:21:34;49.00;;;24.40;;
19221;SDS011;9745;50.828;4.378;2023-02-15T06:24:00;66.17;;;31.80;;
19221;SDS011;9745;50.828;4.378;2023-02-15T06:26:26;51.33;;;28.23;;
19221;SDS011;9745;50.828;4.378;2023-02-15T06:28:52;56.70;;;28.60;;
19221;SDS011;9745;50.828;4.378;2023-02-15T06:31:18;57.77;;;29.80;;
19221;SDS011;9745;50.828;4.378;2023-02-15T06:33:44;59.57;;;29.00;;
19221;SDS011;9745;50.828;4.378;2023-02-15T06:36:10;49.33;;;23.93;;
19221;SDS011;9745;50.828;4.378;2023-02-15T06:38:37;54.93;;;26.27;;
19221;SDS011;9745;50.828;4.378;2023-02-15T06:41:03;46.37;;;24.37;;
19221;SDS011;9745;50.828;4.378;2023-02-15T06:43:29;47.77;;;23.63;;
19221;SDS011;9745;50.828;4.378;2023-02-15T06:45:55;46.03;;;23.40;;
19221;SDS011;9745;50.828;4.378;2023-02-15T06:48:21;49.90;;;23.33;;
19221;SDS011;9745;50.828;4.378;2023-02-15T06:50:47;48.47;;;24.00;;
19221;SDS011;9745;50.828;4.378;2023-02-15T06:53:14;44.13;;;23.90;;
19221;SDS011;9745;50.828;4.378;2023-02-15T06:55:40;46.13;;;23.83;;
19221;SDS011;9745;50.828;4.378;2023-02-15T06:58:06;49.07;;;23.90;;
19221;SDS011;9745;50.828;4.378;2023-02-15T07:00:32;45.33;;;23.60;;
19221;SDS011;9745;50.828;4.378;2023-02-15T07:02:58;43.73;;;22.70;;
19221;SDS011;9745;50.828;4.378;2023-02-15T07:05:25;48.90;;;25.07;;
19221;SDS011;9745;50.828;4.378;2023-02-15T07:07:55;49.47;;;22.77;;
19221;SDS011;9745;50.828;4.378;2023-02-15T07:10:21;48.07;;;24.00;;
19221;SDS011;9745;50.828;4.378;2023-02-15T07:12:47;48.90;;;24.77;;
19221;SDS011;9745;50.828;4.378;2023-02-15T07:15:14;44.67;;;23.67;;
19221;SDS011;9745;50.828;4.378;2023-02-15T07:17:41;44.97;;;24.33;;
19221;SDS011;9745;50.828;4.378;2023-02-15T07:20:11;55.40;;;26.07;;
19221;SDS011;9745;50.828;4.378;2023-02-15T07:22:38;50.40;;;25.90;;
19221;SDS011;9745;50.828;4.378;2023-02-15T07:25:04;51.33;;;24.07;;
19221;SDS011;9745;50.828;4.378;2023-02-15T07:27:31;48.93;;;23.73;;
19221;SDS011;9745;50.828;4.378;2023-02-15T07:29:57;46.23;;;23.83;;
19221;SDS011;9745;50.828;4.378;2023-02-15T07:32:23;48.47;;;23.97;;
19221;SDS011;9745;50.828;4.378;2023-02-15T07:34:49;41.13;;;22.87;;
19221;SDS011;9745;50.828;4.378;2023-02-15T07:37:15;46.90;;;21.87;;
19221;SDS011;9745;50.828;4.378;2023-02-15T07:39:41;45.90;;;24.17;;
19221;SDS011;9745;50.828;4.378;2023-02-15T07:42:07;49.73;;;24.13;;
19221;SDS011;9745;50.828;4.378;2023-02-15T07:44:33;50.73;;;22.57;;
19221;SDS011;9745;50.828;4.378;2023-02-15T07:46:59;51.43;;;21.63;;
19221;SDS011;9745;50.828;4.378;2023-02-15T07:49:25;49.13;;;21.70;;
19221;SDS011;9745;50.828;4.378;2023-02-15T07:51:51;49.17;;;24.20;;
19221;SDS011;9745;50.828;4.378;2023-02-15T07:56:53;54.90;;;23.47;;
19221;SDS011;9745;50.828;4.378;2023-02-15T07:59:19;43.63;;;21.43;;
19221;SDS011;9745;50.828;4.378;2023-02-15T08:01:45;40.37;;;21.23;;
19221;SDS011;9745;50.828;4.378;2023-02-15T08:04:11;47.07;;;23.17;;
19221;SDS011;9745;50.828;4.378;2023-02-15T08:06:37;44.20;;;21.33;;
19221;SDS011;9745;50.828;4.378;2023-02-15T08:11:41;42.83;;;21.63;;
19221;SDS011;9745;50.828;4.378;2023-02-15T08:14:20;46.03;;;23.60;;
19221;SDS011;9745;50.828;4.378;2023-02-15T08:16:52;40.20;;;20.47;;
19221;SDS011;9745;50.828;4.378;2023-02-15T08:21:49;43.73;;;21.90;;
19221;SDS011;9745;50.828;4.378;2023-02-15T08:24:16;43.17;;;19.63;;
19221;SDS011;9745;50.828;4.378;2023-02-15T08:26:42;39.23;;;19.50;;
19221;SDS011;9745;50.828;4.378;2023-02-15T08:29:10;44.03;;;20.57;;
19221;SDS011;9745;50.828;4.378;2023-02-15T08:31:36;42.83;;;19.80;;
19221;SDS011;9745;50.828;4.378;2023-02-15T08:34:03;36.27;;;18.43;;
19221;SDS011;9745;50.828;4.378;2023-02-15T08:36:29;35.30;;;17.53;;
19221;SDS011;9745;50.828;4.378;2023-02-15T08:39:00;35.47;;;17.83;;
19221;SDS011;9745;50.828;4.378;2023-02-15T08:41:27;33.20;;;17.87;;
19221;SDS011;9745;50.828;4.378;2023-02-15T08:43:55;37.23;;;18.03;;
19221;SDS011;9745;50.828;4.378;2023-02-15T08:46:21;41.23;;;17.40;;
19221;SDS011;9745;50.828;4.378;2023-02-15T08:48:48;40.13;;;19.17;;
19221;SDS011;9745;50.828;4.378;2023-02-15T08:51:14;37.07;;;18.70;;
19221;SDS011;9745;50.828;4.378;2023-02-15T08:53:42;33.17;;;17.43;;
19221;SDS011;9745;50.828;4.378;2023-02-15T08:56:08;35.97;;;17.83;;
19221;SDS011;9745;50.828;4.378;2023-02-15T08:58:35;35.77;;;16.57;;
19221;SDS011;9745;50.828;4.378;2023-02-15T09:01:01;36.80;;;17.13;;
19221;SDS011;9745;50.828;4.378;2023-02-15T09:03:27;36.87;;;17.40;;
19221;SDS011;9745;50.828;4.378;2023-02-15T09:06:00;45.37;;;21.90;;
19221;SDS011;9745;50.828;4.378;2023-02-15T09:08:27;39.77;;;19.03;;
19221;SDS011;9745;50.828;4.378;2023-02-15T09:10:53;30.40;;;16.60;;
19221;SDS011;9745;50.828;4.378;2023-02-15T09:13:19;37.10;;;17.63;;
19221;SDS011;9745;50.828;4.378;2023-02-15T09:15:46;31.03;;;18.30;;
19221;SDS011;9745;50.828;4.378;2023-02-15T09:18:12;33.97;;;16.93;;
19221;SDS011;9745;50.828;4.378;2023-02-15T09:20:42;35.13;;;17.43;;
19221;SDS011;9745;50.828;4.378;2023-02-15T09:23:08;36.50;;;18.27;;
19221;SDS011;9745;50.828;4.378;2023-02-15T09:25:34;36.50;;;17.67;;
19221;SDS011;9745;50.828;4.378;2023-02-15T09:28:00;31.30;;;17.40;;
19221;SDS011;9745;50.828;4.378;2023-02-15T09:30:26;36.73;;;17.77;;
19221;SDS011;9745;50.828;4.378;2023-02-15T09:32:52;31.63;;;16.07;;
19221;SDS011;9745;50.828;4.378;2023-02-15T09:35:18;35.63;;;17.43;;
19221;SDS011;9745;50.828;4.378;2023-02-15T09:37:43;34.77;;;18.20;;
19221;SDS011;9745;50.828;4.378;2023-02-15T09:40:11;38.70;;;18.50;;
19221;SDS011;9745;50.828;4.378;2023-02-15T09:45:20;32.00;;;18.13;;
19221;SDS011;9745;50.828;4.378;2023-02-15T09:58:32;32.83;;;18.13;;
19221;SDS011;9745;50.828;4.378;2023-02-15T10:01:12;31.80;;;18.63;;
19221;SDS011;9745;50.828;4.378;2023-02-15T10:06:49;31.50;;;16.37;;
19221;SDS011;9745;50.828;4.378;2023-02-15T10:25:07;33.30;;;17.57;;
19221;SDS011;9745;50.828;4.378;2023-02-15T10:27:38;36.60;;;18.80;;
19221;SDS011;9745;50.828;4.378;2023-02-15T10:30:13;34.00;;;19.07;;
19221;SDS011;9745;50.828;4.378;2023-02-15T10:32:46;38.17;;;18.90;;
19221;SDS011;9745;50.828;4.378;2023-02-15T10:35:36;39.73;;;18.80;;
19221;SDS011;9745;50.828;4.378;2023-02-15T10:38:20;43.90;;;18.97;;
19221;SDS011;9745;50.828;4.378;2023-02-15T10:40:59;40.30;;;19.50;;
19221;SDS011;9745;50.828;4.378;2023-02-15T10:51:04;38.13;;;18.97;;
19221;SDS011;9745;50.828;4.378;2023-02-15T10:56:30;36.50;;;19.87;;
19221;SDS011;9745;50.828;4.378;2023-02-15T10:59:11;38.90;;;19.30;;
19221;SDS011;9745;50.828;4.378;2023-02-15T11:01:59;38.33;;;18.67;;
19221;SDS011;9745;50.828;4.378;2023-02-15T11:04:39;42.00;;;20.60;;
19221;SDS011;9745;50.828;4.378;2023-02-15T11:07:09;40.97;;;20.63;;
19221;SDS011;9745;50.828;4.378;2023-02-15T11:09:40;40.27;;;20.50;;
19221;SDS011;9745;50.828;4.378;2023-02-15T11:12:10;41.40;;;20.20;;
19221;SDS011;9745;50.828;4.378;2023-02-15T11:17:09;38.23;;;19.90;;
19221;SDS011;9745;50.828;4.378;2023-02-15T11:19:37;38.10;;;19.63;;
19221;SDS011;9745;50.828;4.378;2023-02-15T11:22:06;41.30;;;20.23;;
19221;SDS011;9745;50.828;4.378;2023-02-15T11:24:34;35.73;;;19.90;;
19221;SDS011;9745;50.828;4.378;2023-02-15T11:27:11;40.70;;;19.77;;
19221;SDS011;9745;50.828;4.378;2023-02-15T11:29:59;41.83;;;20.03;;
19221;SDS011;9745;50.828;4.378;2023-02-15T11:32:33;39.33;;;19.43;;
19221;SDS011;9745;50.828;4.378;2023-02-15T11:35:04;36.60;;;20.23;;
19221;SDS011;9745;50.828;4.378;2023-02-15T11:42:30;38.80;;;21.03;;
19221;SDS011;9745;50.828;4.378;2023-02-15T11:47:56;48.97;;;23.93;;
19221;SDS011;9745;50.828;4.378;2023-02-15T11:50:24;42.07;;;19.87;;
19221;SDS011;9745;50.828;4.378;2023-02-15T11:52:51;39.17;;;20.77;;
19221;SDS011;9745;50.828;4.378;2023-02-15T11:55:19;37.10;;;20.43;;
19221;SDS011;9745;50.828;4.378;2023-02-15T11:57:48;39.43;;;20.93;;
19221;SDS011;9745;50.828;4.378;2023-02-15T12:00:22;35.67;;;19.90;;
19221;SDS011;9745;50.828;4.378;2023-02-15T12:02:52;39.87;;;20.83;;
19221;SDS011;9745;50.828;4.378;2023-02-15T12:05:19;41.97;;;20.67;;
19221;SDS011;9745;50.828;4.378;2023-02-15T12:08:03;41.00;;;22.23;;
19221;SDS011;9745;50.828;4.378;2023-02-15T12:10:34;43.43;;;21.33;;
19221;SDS011;9745;50.828;4.378;2023-02-15T12:13:08;50.00;;;22.83;;
19221;SDS011;9745;50.828;4.378;2023-02-15T12:15:35;43.13;;;23.07;;
19221;SDS011;9745;50.828;4.378;2023-02-15T12:18:02;46.00;;;25.17;;
19221;SDS011;9745;50.828;4.378;2023-02-15T12:20:29;38.27;;;22.80;;
19221;SDS011;9745;50.828;4.378;2023-02-15T12:22:59;47.57;;;23.17;;
19221;SDS011;9745;50.828;4.378;2023-02-15T12:27:59;42.63;;;23.00;;
19221;SDS011;9745;50.828;4.378;2023-02-15T12:30:29;44.53;;;23.50;;
19221;SDS011;9745;50.828;4.378;2023-02-15T12:32:57;43.57;;;22.83;;
19221;SDS011;9745;50.828;4.378;2023-02-15T12:35:31;43.57;;;23.70;;
19221;SDS011;9745;50.828;4.378;2023-02-15T12:38:21;49.77;;;24.67;;
19221;SDS011;9745;50.828;4.378;2023-02-15T12:40:56;47.57;;;25.20;;
19221;SDS011;9745;50.828;4.378;2023-02-15T12:43:29;47.43;;;23.43;;
19221;SDS011;9745;50.828;4.378;2023-02-15T12:48:41;43.63;;;24.27;;
19221;SDS011;9745;50.828;4.378;2023-02-15T12:51:07;43.57;;;22.90;;
19221;SDS011;9745;50.828;4.378;2023-02-15T12:53:35;43.10;;;22.03;;
19221;SDS011;9745;50.828;4.378;2023-02-15T12:56:02;42.73;;;23.43;;
19221;SDS011;9745;50.828;4.378;2023-02-15T12:58:29;42.37;;;22.40;;
19221;SDS011;9745;50.828;4.378;2023-02-15T13:03:37;38.80;;;23.13;;
19221;SDS011;9745;50.828;4.378;2023-02-15T13:06:04;44.73;;;24.77;;
19221;SDS011;9745;50.828;4.378;2023-02-15T13:08:55;46.77;;;24.27;;
19221;SDS011;9745;50.828;4.378;2023-02-15T13:11:29;41.60;;;22.90;;
19221;SDS011;9745;50.828;4.378;2023-02-15T13:14:18;38.40;;;22.07;;
19221;SDS011;9745;50.828;4.378;2023-02-15T13:16:45;40.20;;;22.30;;
19221;SDS011;9745;50.828;4.378;2023-02-15T13:19:14;39.87;;;22.87;;
19221;SDS011;9745;50.828;4.378;2023-02-15T13:21:44;40.30;;;23.20;;
19221;SDS011;9745;50.828;4.378;2023-02-15T13:26:36;38.83;;;22.33;;
19221;SDS011;9745;50.828;4.378;2023-02-15T13:29:06;41.30;;;22.43;;
19221;SDS011;9745;50.828;4.378;2023-02-15T13:31:34;39.53;;;21.03;;
19221;SDS011;9745;50.828;4.378;2023-02-15T13:34:03;44.47;;;22.17;;
19221;SDS011;9745;50.828;4.378;2023-02-15T13:37:17;45.17;;;24.43;;
19221;SDS011;9745;50.828;4.378;2023-02-15T13:39:30;46.83;;;24.47;;
19221;SDS011;9745;50.828;4.378;2023-02-15T13:42:01;45.07;;;24.43;;
19221;SDS011;9745;50.828;4.378;2023-02-15T13:47:21;39.40;;;22.53;;
19221;SDS011;9745;50.828;4.378;2023-02-15T13:50:01;49.50;;;25.30;;
19221;SDS011;9745;50.828;4.378;2023-02-15T13:52:28;40.57;;;25.23;;
19221;SDS011;9745;50.828;4.378;2023-02-15T14:00:18;47.70;;;27.43;;
19221;SDS011;9745;50.828;4.378;2023-02-15T14:02:57;47.87;;;25.73;;
19221;SDS011;9745;50.828;4.378;2023-02-15T14:05:33;44.20;;;24.97;;
19221;SDS011;9745;50.828;4.378;2023-02-15T14:08:19;44.90;;;25.00;;
19221;SDS011;9745;50.828;4.378;2023-02-15T14:10:59;56.00;;;27.30;;
19221;SDS011;9745;50.828;4.378;2023-02-15T14:16:17;49.53;;;27.30;;
19221;SDS011;9745;50.828;4.378;2023-02-15T14:19:01;51.53;;;25.77;;
19221;SDS011;9745;50.828;4.378;2023-02-15T14:21:32;47.43;;;23.87;;
19221;SDS011;9745;50.828;4.378;2023-02-15T14:24:08;48.27;;;27.40;;
19221;SDS011;9745;50.828;4.378;2023-02-15T14:26:49;46.00;;;26.30;;
19221;SDS011;9745;50.828;4.378;2023-02-15T14:31:49;48.03;;;26.70;;
19221;SDS011;9745;50.828;4.378;2023-02-15T14:34:19;53.83;;;27.17;;
19221;SDS011;9745;50.828;4.378;2023-02-15T14:36:47;51.40;;;27.30;;
19221;SDS011;9745;50.828;4.378;2023-02-15T14:41:59;54.17;;;28.80;;
19221;SDS011;9745;50.828;4.378;2023-02-15T14:44:32;49.70;;;27.83;;
19221;SDS011;9745;50.828;4.378;2023-02-15T14:49:30;61.23;;;31.60;;
19221;SDS011;9745;50.828;4.378;2023-02-15T14:51:58;58.60;;;31.73;;
19221;SDS011;9745;50.828;4.378;2023-02-15T14:59:25;53.17;;;28.23;;
19221;SDS011;9745;50.828;4.378;2023-02-15T15:01:55;53.20;;;27.63;;
19221;SDS011;9745;50.828;4.378;2023-02-15T15:04:33;50.37;;;27.20;;
19221;SDS011;9745;50.828;4.378;2023-02-15T15:07:14;53.17;;;28.50;;
19221;SDS011;9745;50.828;4.378;2023-02-15T15:09:43;51.13;;;28.03;;
19221;SDS011;9745;50.828;4.378;2023-02-15T15:12:15;52.93;;;28.50;;
19221;SDS011;9745;50.828;4.378;2023-02-15T15:15:00;48.20;;;28.70;;
19221;SDS011;9745;50.828;4.378;2023-02-15T15:22:28;59.63;;;28.67;;
19221;SDS011;9745;50.828;4.378;2023-02-15T15:24:55;55.17;;;29.53;;
19221;SDS011;9745;50.828;4.378;2023-02-15T15:27:41;52.17;;;27.70;;
19221;SDS011;9745;50.828;4.378;2023-02-15T15:35:16;49.83;;;27.83;;
19221;SDS011;9745;50.828;4.378;2023-02-15T15:43:15;49.00;;;28.63;;
19221;SDS011;9745;50.828;4.378;2023-02-15T15:48:28;58.87;;;30.77;;
19221;SDS011;9745;50.828;4.378;2023-02-15T15:50:56;60.63;;;31.53;;
19221;SDS011;9745;50.828;4.378;2023-02-15T15:53:24;65.67;;;32.90;;
19221;SDS011;9745;50.828;4.378;2023-02-15T15:55:52;55.33;;;30.27;;
19221;SDS011;9745;50.828;4.378;2023-02-15T15:58:20;116.17;;;47.70;;
19221;SDS011;9745;50.828;4.378;2023-02-15T16:00:48;62.90;;;33.77;;
19221;SDS011;9745;50.828;4.378;2023-02-15T16:03:16;67.43;;;33.77;;
19221;SDS011;9745;50.828;4.378;2023-02-15T16:05:45;59.90;;;32.30;;
19221;SDS011;9745;50.828;4.378;2023-02-15T16:08:13;52.70;;;30.50;;
19221;SDS011;9745;50.828;4.378;2023-02-15T16:10:40;58.53;;;30.37;;
19221;SDS011;9745;50.828;4.378;2023-02-15T16:13:06;56.27;;;30.23;;
19221;SDS011;9745;50.828;4.378;2023-02-15T16:15:51;56.00;;;30.60;;
19221;SDS011;9745;50.828;4.378;2023-02-15T16:18:19;55.20;;;28.97;;
19221;SDS011;9745;50.828;4.378;2023-02-15T16:20:50;56.83;;;30.17;;
19221;SDS011;9745;50.828;4.378;2023-02-15T16:23:30;57.37;;;30.17;;
19221;SDS011;9745;50.828;4.378;2023-02-15T16:28:27;51.37;;;28.70;;
19221;SDS011;9745;50.828;4.378;2023-02-15T16:33:35;63.40;;;28.50;;
19221;SDS011;9745;50.828;4.378;2023-02-15T16:36:02;61.97;;;28.57;;
19221;SDS011;9745;50.828;4.378;2023-02-15T16:41:11;51.87;;;29.20;;
19221;SDS011;9745;50.828;4.378;2023-02-15T16:43:38;53.23;;;29.00;;
19221;SDS011;9745;50.828;4.378;2023-02-15T16:46:07;58.43;;;30.80;;
19221;SDS011;9745;50.828;4.378;2023-02-15T16:48:37;56.53;;;30.20;;
19221;SDS011;9745;50.828;4.378;2023-02-15T16:51:04;56.30;;;28.93;;
19221;SDS011;9745;50.828;4.378;2023-02-15T16:53:30;57.03;;;29.20;;
19221;SDS011;9745;50.828;4.378;2023-02-15T16:55:59;58.97;;;30.10;;
19221;SDS011;9745;50.828;4.378;2023-02-15T16:58:36;57.23;;;29.57;;
19221;SDS011;9745;50.828;4.378;2023-02-15T17:01:03;60.10;;;28.57;;
19221;SDS011;9745;50.828;4.378;2023-02-15T17:03:31;60.87;;;31.13;;
19221;SDS011;9745;50.828;4.378;2023-02-15T17:05:58;56.23;;;28.90;;
19221;SDS011;9745;50.828;4.378;2023-02-15T17:08:26;61.27;;;30.57;;
19221;SDS011;9745;50.828;4.378;2023-02-15T17:13:28;52.57;;;28.13;;
19221;SDS011;9745;50.828;4.378;2023-02-15T17:18:26;57.67;;;30.63;;
19221;SDS011;9745;50.828;4.378;2023-02-15T17:20:57;57.90;;;30.50;;
19221;SDS011;9745;50.828;4.378;2023-02-15T17:25:50;52.93;;;29.30;;
19221;SDS011;9745;50.828;4.378;2023-02-15T17:28:18;55.67;;;29.80;;
19221;SDS011;9745;50.828;4.378;2023-02-15T17:30:44;60.77;;;30.80;;